Time;durP1;ratioP1;P1;durP2;ratioP2;P2;SDS_P1;SDS_P2;PMS_P1;PMS_P2;Temp;Humidity;BMP_temperature;BMP_pressure;BME280_temperature;BME280_humidity;BME280_pressure;Samples;Min_cycle;Max_cycle;Signal;HPM_P1;HPM_P2
2023/03/22 00:02:15;;;;;;;1.55;1.45;;;;;;;5.78;76.98;99174.66;4455388;32;34807;-69
2023/03/22 00:04:43;;;;;;;1.02;1.02;;;;;;;5.72;76.36;99174.59;4442767;32;32720;-69
2023/03/22 00:07:12;;;;;;;0.62;0.62;;;;;;;5.66;78.69;99171.13;4469537;32;33759;-70
2023/03/22 00:09:40;;;;;;;0.50;0.50;;;;;;;5.32;79.80;99170.03;4469417;32;35090;-69
2023/03/22 00:12:08;;;;;;;1.23;1.12;;;;;;;5.50;78.38;99164.13;4469452;32;35151;-75
2023/03/22 00:14:37;;;;;;;0.80;0.80;;;;;;;5.97;76.55;99170.50;4469346;32;34220;-69
2023/03/22 00:17:05;;;;;;;0.60;0.60;;;;;;;6.02;76.54;99173.97;4469413;32;34747;-69
2023/03/22 00:19:33;;;;;;;0.90;0.90;;;;;;;5.94;78.19;99170.44;4469343;32;35109;-70
2023/03/22 00:22:02;;;;;;;2.33;1.00;;;;;;;5.92;79.30;99161.81;4469196;32;34512;-69
2023/03/22 00:24:30;;;;;;;0.50;0.50;;;;;;;5.54;79.48;99165.03;4457121;32;33633;-70
2023/03/22 00:26:59;;;;;;;1.40;1.20;;;;;;;5.44;79.54;99153.78;4471105;32;34680;-69
2023/03/22 00:29:28;;;;;;;1.05;1.05;;;;;;;5.32;80.31;99157.13;4471438;32;34948;-74
2023/03/22 00:31:56;;;;;;;0.60;0.60;;;;;;;5.22;80.66;99153.59;4471342;32;35311;-69
2023/03/22 00:34:25;;;;;;;0.80;0.80;;;;;;;5.03;80.67;99156.88;4457673;32;33509;-75
2023/03/22 00:36:55;;;;;;;1.73;1.62;;;;;;;4.86;80.92;99160.19;4471327;32;33830;-69
2023/03/22 00:39:23;;;;;;;0.60;0.60;;;;;;;4.85;80.09;99167.91;4471282;32;35100;-69
2023/03/22 00:41:52;;;;;;;1.92;1.83;;;;;;;4.77;81.67;99164.41;4457608;32;34474;-69
2023/03/22 00:44:20;;;;;;;0.85;0.85;;;;;;;4.35;84.32;99161.38;4471139;32;34128;-69
2023/03/22 00:46:48;;;;;;;0.50;0.50;;;;;;;4.39;83.98;99154.53;4471170;32;33862;-70
2023/03/22 00:49:17;;;;;;;0.98;0.98;;;;;;;4.41;82.98;99160.56;4471207;32;34979;-69
2023/03/22 00:51:46;;;;;;;1.00;1.00;;;;;;;4.53;82.42;99159.00;4471118;32;33918;-69
2023/03/22 00:54:15;;;;;;;1.20;1.05;;;;;;;4.36;86.40;99158.81;4457120;32;33340;-70
2023/03/22 00:56:44;;;;;;;2.67;2.25;;;;;;;4.31;84.74;99163.06;4457026;32;32751;-70
2023/03/22 00:59:13;;;;;;;0.95;0.95;;;;;;;4.58;84.32;99155.63;4471090;32;35004;-70
2023/03/22 01:01:42;;;;;;;0.98;0.98;;;;;;;4.33;85.01;99161.34;4457246;32;34321;-69
2023/03/22 01:04:16;;;;;;;0.70;0.70;;;;;;;4.26;85.65;99156.13;4457061;32;33674;-73
2023/03/22 01:06:46;;;;;;;1.33;1.23;;;;;;;3.91;90.44;99147.09;4471255;32;34707;-69
2023/03/22 01:09:14;;;;;;;1.05;1.00;;;;;;;4.32;89.28;99149.34;4471064;32;35164;-69
2023/03/22 01:11:44;;;;;;;1.20;1.20;;;;;;;4.31;88.96;99150.16;4470978;32;34474;-69
2023/03/22 01:14:12;;;;;;;1.25;1.15;;;;;;;5.15;87.80;99145.81;4471111;32;34351;-69
2023/03/22 01:16:41;;;;;;;0.60;0.60;;;;;;;5.39;87.76;99140.81;4470995;32;33993;-72
2023/03/22 01:19:09;;;;;;;1.10;1.10;;;;;;;6.53;88.05;99146.56;4471179;32;35133;-71
2023/03/22 01:21:38;;;;;;;1.42;1.35;;;;;;;5.94;87.04;99140.28;4471191;32;34492;-70
2023/03/22 01:24:07;;;;;;;2.17;1.98;;;;;;;6.85;86.55;99148.34;4470964;32;33429;-69
2023/03/22 01:26:35;;;;;;;1.60;1.50;;;;;;;6.95;85.59;99142.31;4471240;32;33574;-75
2023/03/22 01:29:04;;;;;;;1.15;1.15;;;;;;;7.24;84.17;99145.78;4470645;32;35019;-73
2023/03/22 01:31:33;;;;;;;0.90;0.85;;;;;;;7.45;82.70;99139.69;4457343;32;34360;-69
2023/03/22 01:34:01;;;;;;;1.98;1.85;;;;;;;7.86;82.74;99136.16;4456507;32;34370;-75
2023/03/22 01:36:30;;;;;;;2.05;1.95;;;;;;;8.23;80.33;99146.41;4470402;32;33362;-75
2023/03/22 01:38:59;;;;;;;0.65;0.65;;;;;;;8.05;80.43;99132.63;4471087;32;35034;-69
2023/03/22 01:41:27;;;;;;;1.12;1.12;;;;;;;7.98;79.21;99136.12;4471054;32;35174;-69
2023/03/22 01:44:17;;;;;;;0.60;0.60;;;;;;;8.23;79.33;99136.88;4457189;32;33425;-70
2023/03/22 01:46:48;;;;;;;0.90;0.90;;;;;;;7.47;78.84;99143.16;4444141;32;32452;-70
2023/03/22 01:49:20;;;;;;;0.70;0.70;;;;;;;7.28;81.45;99143.16;4457262;32;34354;-69
2023/03/22 01:51:50;;;;;;;0.60;0.60;;;;;;;6.84;81.55;99142.28;4470834;32;34409;-69
2023/03/22 01:54:35;;;;;;;0.47;0.47;;;;;;;6.37;82.47;99139.59;4457254;32;33536;-69
2023/03/22 01:57:05;;;;;;;0.95;0.95;;;;;;;6.37;83.78;99144.78;4471088;32;34724;-69
2023/03/22 01:59:34;;;;;;;0.73;0.73;;;;;;;6.15;85.36;99142.13;4457031;32;35032;-69
2023/03/22 02:02:03;;;;;;;0.70;0.70;;;;;;;6.32;84.38;99139.59;4457085;32;34382;-69
2023/03/22 02:04:34;;;;;;;1.40;1.25;;;;;;;5.91;85.02;99144.56;4456977;32;34430;-69
2023/03/22 02:07:08;;;;;;;0.62;0.62;;;;;;;5.84;85.93;99149.72;4470995;32;33942;-69
2023/03/22 02:09:40;;;;;;;0.82;0.82;;;;;;;5.24;86.61;99148.44;4456811;32;35003;-74
2023/03/22 02:12:29;;;;;;;0.60;0.60;;;;;;;5.02;86.00;99144.84;4470973;32;34433;-69
2023/03/22 02:15:18;;;;;;;0.80;0.80;;;;;;;4.74;86.92;99150.59;4470817;32;33586;-69
2023/03/22 02:18:18;;;;;;;0.70;0.70;;;;;;;4.68;87.08;99153.13;4456982;32;33882;-72
2023/03/22 02:21:09;;;;;;;0.60;0.60;;;;;;;4.80;85.94;99154.09;4470897;32;35041;-70
2023/03/22 02:23:46;;;;;;;0.80;0.80;;;;;;;4.53;85.03;99159.00;4470534;32;34470;-76
2023/03/22 02:26:38;;;;;;;0.90;0.90;;;;;;;4.47;91.14;99161.50;4470588;32;34291;-70
2023/03/22 02:29:15;;;;;;;1.17;1.17;;;;;;;4.48;89.38;99167.53;4470584;32;33788;-72
2023/03/22 02:32:08;;;;;;;0.70;0.70;;;;;;;4.21;90.69;99163.78;4470507;32;35856;-69
2023/03/22 02:34:59;;;;;;;0.62;0.62;;;;;;;3.77;92.50;99158.94;4470495;32;35329;-69
2023/03/22 02:37:34;;;;;;;1.02;1.02;;;;;;;3.99;92.18;99163.53;4435190;32;33456;-69
2023/03/22 02:40:15;;;;;;;1.30;1.25;;;;;;;4.11;93.22;99159.38;4470775;32;34807;-69
2023/03/22 02:42:54;;;;;;;0.70;0.70;;;;;;;4.33;92.18;99160.50;4456652;32;35024;-70
2023/03/22 02:45:36;;;;;;;0.82;0.82;;;;;;;4.22;91.69;99162.97;4470174;32;34544;-69
2023/03/22 02:48:23;;;;;;;0.98;0.90;;;;;;;4.48;90.72;99160.69;4456604;32;33369;-69
2023/03/22 02:50:54;;;;;;;1.25;1.25;;;;;;;4.26;93.90;99149.25;4443583;32;33108;-70
2023/03/22 02:53:27;;;;;;;0.60;0.60;;;;;;;4.44;93.96;99150.31;4456485;32;35896;-69
2023/03/22 02:56:02;;;;;;;0.80;0.80;;;;;;;4.96;96.63;99156.00;4470315;32;34566;-76
2023/03/22 02:58:38;;;;;;;1.48;1.45;;;;;;;4.92;95.51;99146.47;4470612;32;33775;-69
2023/03/22 03:01:08;;;;;;;0.60;0.60;;;;;;;5.89;95.62;99148.03;4456720;32;33869;-75
2023/03/22 03:03:38;;;;;;;0.93;0.93;;;;;;;6.44;94.75;99146.50;4456377;32;35111;-74
2023/03/22 03:06:09;;;;;;;0.93;0.93;;;;;;;6.86;92.80;99151.78;4456491;32;34574;-75
2023/03/22 03:08:39;;;;;;;0.70;0.70;;;;;;;6.82;92.64;99156.09;4470556;32;33505;-72
2023/03/22 03:11:09;;;;;;;2.10;0.95;;;;;;;6.88;90.78;99163.00;4456436;32;34729;-71
2023/03/22 03:13:37;;;;;;;8.15;5.18;;;;;;;7.40;89.75;99152.66;4456471;32;34926;-69
2023/03/22 03:16:06;;;;;;;0.90;0.90;;;;;;;7.62;87.95;99150.03;4470364;32;34920;-69
2023/03/22 03:18:40;;;;;;;0.50;0.50;;;;;;;7.95;86.37;99146.50;4456235;32;33468;-69
2023/03/22 03:21:28;;;;;;;0.77;0.73;;;;;;;7.97;86.94;99157.72;4470320;32;33865;-69
2023/03/22 03:24:06;;;;;;;1.87;1.77;;;;;;;8.11;86.78;99165.44;4456437;32;35000;-69
2023/03/22 03:26:46;;;;;;;0.70;0.70;;;;;;;8.26;83.36;99168.00;4456178;32;34634;-72
2023/03/22 03:29:36;;;;;;;1.55;1.45;;;;;;;7.70;79.92;99177.66;4456172;32;34241;-70
2023/03/22 03:32:36;;;;;;;0.57;0.57;;;;;;;6.94;81.98;99187.19;4469949;32;33730;-69
2023/03/22 03:35:21;;;;;;;1.02;1.02;;;;;;;6.79;84.85;99184.56;4456641;32;35806;-69
2023/03/22 03:38:20;;;;;;;0.73;0.70;;;;;;;6.47;89.05;99180.16;4444544;32;33716;-69
2023/03/22 03:40:52;;;;;;;1.35;0.80;;;;;;;6.77;90.53;99181.09;4429606;32;33335;-70
2023/03/22 03:43:21;;;;;;;1.52;1.42;;;;;;;6.88;86.58;99184.56;4455987;32;34715;-69
2023/03/22 03:45:51;;;;;;;0.65;0.65;;;;;;;6.83;87.53;99179.41;4469725;32;35893;-69
2023/03/22 03:48:22;;;;;;;0.95;0.95;;;;;;;7.12;88.53;99177.69;4456117;32;34395;-71
2023/03/22 03:50:51;;;;;;;1.42;1.37;;;;;;;6.73;90.39;99181.97;4456004;32;33678;-70
2023/03/22 03:53:20;;;;;;;0.93;0.93;;;;;;;6.69;87.38;99178.50;4469910;32;34556;-69
2023/03/22 03:55:48;;;;;;;0.75;0.65;;;;;;;6.66;90.36;99177.63;4455961;32;35051;-70
2023/03/22 03:58:17;;;;;;;0.50;0.50;;;;;;;7.45;87.37;99170.78;4470556;32;34469;-69
2023/03/22 04:00:46;;;;;;;0.90;0.73;;;;;;;8.04;84.42;99167.19;4471896;32;33498;-70
2023/03/22 04:03:16;;;;;;;0.40;0.40;;;;;;;7.68;86.39;99184.59;4458174;32;34041;-74
2023/03/22 04:05:45;;;;;;;1.25;1.15;;;;;;;7.52;86.71;99190.66;4457768;32;35938;-69
2023/03/22 04:08:13;;;;;;;0.55;0.55;;;;;;;7.53;85.85;99190.63;4457883;32;35079;-70
2023/03/22 04:10:42;;;;;;;0.70;0.70;;;;;;;7.26;83.56;99175.97;4471437;32;34364;-69
2023/03/22 04:13:11;;;;;;;0.82;0.82;;;;;;;7.66;82.08;99175.94;4457641;32;33869;-69
2023/03/22 04:15:39;;;;;;;0.50;0.50;;;;;;;7.74;82.71;99183.69;4471748;32;35860;-70
2023/03/22 04:18:11;;;;;;;0.98;0.98;;;;;;;7.43;84.07;99188.03;4457311;32;33300;-70
2023/03/22 04:20:40;;;;;;;1.08;0.98;;;;;;;7.11;86.13;99186.31;4471664;32;33495;-69
2023/03/22 04:23:09;;;;;;;0.40;0.40;;;;;;;7.36;85.60;99182.03;4471583;32;33941;-73
2023/03/22 04:25:38;;;;;;;1.08;1.08;;;;;;;7.90;79.29;99175.00;4471519;32;35172;-70
2023/03/22 04:28:08;;;;;;;1.00;0.93;;;;;;;7.12;83.91;99180.28;4471369;32;34347;-69
2023/03/22 04:30:37;;;;;;;3.03;1.17;;;;;;;6.93;85.52;99190.59;4471748;32;32770;-69
2023/03/22 04:33:07;;;;;;;1.30;1.30;;;;;;;6.71;86.17;99191.44;4471616;32;34113;-69
2023/03/22 04:35:37;;;;;;;1.17;1.15;;;;;;;6.54;84.18;99189.66;4471580;32;35797;-69
2023/03/22 04:38:06;;;;;;;0.93;0.93;;;;;;;6.57;83.70;99184.50;4471234;32;35346;-70
2023/03/22 04:40:37;;;;;;;0.47;0.47;;;;;;;6.65;86.71;99187.09;4471607;32;33811;-74
2023/03/22 04:43:08;;;;;;;1.02;1.02;;;;;;;6.28;89.82;99183.53;4471217;32;33903;-75
2023/03/22 04:45:40;;;;;;;1.05;1.05;;;;;;;6.30;86.33;99187.00;4471635;32;35234;-69
2023/03/22 04:48:10;;;;;;;0.82;0.82;;;;;;;5.71;86.78;99184.06;4471521;32;34431;-69
2023/03/22 04:50:38;;;;;;;1.20;1.20;;;;;;;6.32;88.87;99195.59;4471462;32;33474;-71
2023/03/22 04:53:08;;;;;;;0.70;0.70;;;;;;;6.30;88.23;99194.75;4471504;32;33970;-70
2023/03/22 04:55:38;;;;;;;0.70;0.70;;;;;;;6.04;85.56;99192.91;4471466;32;35117;-72
2023/03/22 04:58:06;;;;;;;1.05;1.05;;;;;;;5.83;88.05;99191.91;4471168;32;35283;-69
2023/03/22 05:00:36;;;;;;;5.68;1.25;;;;;;;6.63;87.63;99192.25;4471508;32;33396;-69
2023/03/22 05:03:05;;;;;;;1.73;1.62;;;;;;;6.91;88.44;99200.09;4457284;32;34673;-77
2023/03/22 05:05:35;;;;;;;0.60;0.60;;;;;;;6.39;88.34;99197.41;4471255;32;34966;-70
2023/03/22 05:08:03;;;;;;;1.37;1.25;;;;;;;6.02;86.93;99190.31;4471283;32;35137;-70
2023/03/22 05:10:32;;;;;;;0.73;0.73;;;;;;;5.62;89.96;99199.53;4471001;32;33445;-70
2023/03/22 05:13:00;;;;;;;0.60;0.60;;;;;;;6.26;90.67;99199.94;4470952;32;34698;-75
2023/03/22 05:15:31;;;;;;;0.50;0.50;;;;;;;6.53;87.73;99200.87;4470991;32;35060;-69
2023/03/22 05:18:00;;;;;;;1.08;1.00;;;;;;;6.37;85.35;99196.50;4471233;32;35200;-70
2023/03/22 05:20:28;;;;;;;0.45;0.45;;;;;;;6.30;85.72;99202.50;4471339;32;34120;-70
2023/03/22 05:22:57;;;;;;;0.77;0.77;;;;;;;6.21;86.38;99205.91;4471153;32;34773;-70
2023/03/22 05:25:26;;;;;;;0.60;0.60;;;;;;;6.57;86.37;99204.34;4471112;32;35892;-70
2023/03/22 05:28:00;;;;;;;1.17;0.95;;;;;;;7.33;84.08;99213.09;4461055;32;309203;-70
2023/03/22 05:30:31;;;;;;;2.03;1.92;;;;;;;7.62;85.22;99215.66;4458080;32;33584;-75
2023/03/22 05:33:02;;;;;;;4.55;2.75;;;;;;;9.21;81.92;99218.56;4444701;32;33160;-70
2023/03/22 05:35:33;;;;;;;0.75;0.75;;;;;;;9.88;71.44;99213.63;4457339;32;35843;-70
2023/03/22 05:38:02;;;;;;;0.40;0.40;;;;;;;8.80;75.85;99211.88;4470965;32;33733;-70
2023/03/22 05:40:32;;;;;;;1.67;1.58;;;;;;;8.58;76.97;99210.25;4471108;32;33573;-70
2023/03/22 05:43:01;;;;;;;0.80;0.80;;;;;;;8.92;77.08;99198.81;4457306;32;33869;-70
2023/03/22 05:45:31;;;;;;;4.40;2.87;;;;;;;9.21;76.38;99217.66;4456856;32;34316;-70
2023/03/22 05:48:02;;;;;;;0.55;0.55;;;;;;;8.95;78.59;99215.25;4471204;32;34440;-70
2023/03/22 05:50:31;;;;;;;1.75;1.65;;;;;;;9.15;77.53;99213.38;4457122;32;34165;-71
2023/03/22 05:52:59;;;;;;;1.10;1.08;;;;;;;8.77;80.76;99217.09;4457134;32;33853;-70
2023/03/22 05:55:30;;;;;;;0.70;0.70;;;;;;;8.86;81.87;99221.38;4470980;32;34703;-74
2023/03/22 05:58:00;;;;;;;1.15;1.08;;;;;;;9.13;80.47;99222.94;4470852;32;34490;-69
2023/03/22 06:00:30;;;;;;;1.50;1.40;;;;;;;9.17;79.55;99216.81;4471021;32;33484;-70
2023/03/22 06:03:02;;;;;;;0.70;0.70;;;;;;;9.02;80.94;99223.00;4457580;32;34589;-71
2023/03/22 06:05:32;;;;;;;3.10;2.17;;;;;;;9.59;78.82;99230.38;4470839;32;35949;-70
2023/03/22 06:08:00;;;;;;;8.52;1.70;;;;;;;9.76;77.13;99227.62;4470678;32;34483;-70
2023/03/22 06:10:29;;;;;;;0.50;0.50;;;;;;;9.97;76.42;99231.75;4470675;32;33456;-70
2023/03/22 06:12:57;;;;;;;2.62;1.98;;;;;;;10.13;74.75;99239.37;4460633;32;34042;-70
2023/03/22 06:15:26;;;;;;;1.95;1.73;;;;;;;10.27;73.39;99229.72;4485585;32;35846;-70
2023/03/22 06:17:55;;;;;;;3.00;2.70;;;;;;;10.34;74.63;99239.22;4470450;32;34445;-71
2023/03/22 06:20:24;;;;;;;0.95;0.90;;;;;;;10.43;73.79;99233.88;4470268;32;33688;-70
2023/03/22 06:22:55;;;;;;;1.40;1.30;;;;;;;10.51;72.39;99233.78;4470858;32;33942;-74
2023/03/22 06:25:23;;;;;;;1.27;1.20;;;;;;;10.81;71.83;99237.72;4470445;32;35076;-72
2023/03/22 06:27:52;;;;;;;0.40;0.40;;;;;;;11.02;70.76;99240.94;4456387;32;34368;-75
2023/03/22 06:30:21;;;;;;;1.62;1.52;;;;;;;11.00;71.24;99246.16;4470760;32;33462;-70
2023/03/22 06:32:50;;;;;;;0.75;0.75;;;;;;;11.14;72.88;99256.41;4455841;32;33310;-70
2023/03/22 06:35:24;;;;;;;0.70;0.70;;;;;;;11.41;72.08;99259.47;4470515;32;35759;-70
2023/03/22 06:37:52;;;;;;;1.05;1.02;;;;;;;11.38;71.66;99251.69;4470777;32;34159;-71
2023/03/22 06:40:20;;;;;;;0.77;0.77;;;;;;;11.19;71.83;99251.12;4470442;32;34343;-73
2023/03/22 06:42:49;;;;;;;0.93;0.93;;;;;;;11.52;71.12;99260.19;4470343;32;34738;-74
2023/03/22 06:45:20;;;;;;;18.15;3.50;;;;;;;11.66;72.18;99257.31;4470478;32;35028;-70
2023/03/22 06:47:49;;;;;;;0.80;0.80;;;;;;;12.00;71.39;99256.81;4456926;32;33585;-69
2023/03/22 06:50:21;;;;;;;1.00;1.00;;;;;;;11.88;72.13;99255.22;4472299;32;33452;-73
2023/03/22 06:52:51;;;;;;;1.10;1.10;;;;;;;11.95;69.17;99246.44;4483728;32;33251;-75
2023/03/22 06:55:20;;;;;;;1.62;1.52;;;;;;;11.87;68.42;99240.44;4485810;32;35938;-74
2023/03/22 06:57:49;;;;;;;0.88;0.88;;;;;;;12.13;67.77;99242.62;4486287;32;35243;-71
2023/03/22 07:00:17;;;;;;;2.08;1.25;;;;;;;12.51;63.80;99245.38;4485850;32;33234;-74
2023/03/22 07:02:46;;;;;;;1.15;1.15;;;;;;;13.37;63.04;99266.22;4486227;32;34716;-73
2023/03/22 07:05:16;;;;;;;11.82;4.37;;;;;;;13.43;63.96;99280.00;4471950;32;34394;-72
2023/03/22 07:07:45;;;;;;;0.55;0.55;;;;;;;13.67;65.58;99274.22;4471536;32;33773;-73
2023/03/22 07:10:13;;;;;;;4.10;3.35;;;;;;;13.58;65.19;99273.53;4459096;32;33863;-76
2023/03/22 07:12:43;;;;;;;2.75;2.55;;;;;;;13.69;64.78;99265.44;4470691;32;33958;-72
2023/03/22 07:15:16;;;;;;;5.87;1.75;;;;;;;13.58;64.43;99263.06;4459094;32;34454;-71
2023/03/22 07:17:46;;;;;;;3.15;2.87;;;;;;;13.27;66.31;99270.75;4483811;32;34370;-71
2023/03/22 07:20:14;;;;;;;2.87;2.67;;;;;;;12.96;67.86;99266.22;4485186;32;34345;-71
2023/03/22 07:22:43;;;;;;;0.77;0.77;;;;;;;13.20;64.29;99272.66;4484905;32;34592;-76
2023/03/22 07:25:12;;;;;;;4.35;2.62;;;;;;;12.99;66.82;99273.12;4470295;32;34695;-72
2023/03/22 07:27:41;;;;;;;1.92;1.80;;;;;;;13.19;66.65;99277.91;4468997;32;35220;-71
2023/03/22 07:30:10;;;;;;;0.77;0.77;;;;;;;13.20;67.14;99277.91;4468853;32;33410;-72
2023/03/22 07:32:40;;;;;;;0.70;0.70;;;;;;;13.45;63.35;99277.37;4467821;32;34840;-75
2023/03/22 07:35:10;;;;;;;1.02;0.98;;;;;;;13.16;64.63;99270.13;4470343;32;35026;-71
2023/03/22 07:37:39;;;;;;;6.87;3.35;;;;;;;13.36;63.39;99275.81;4455916;32;34580;-76
2023/03/22 07:40:11;;;;;;;2.97;1.55;;;;;;;13.99;62.37;99283.87;4460511;32;33708;-71
2023/03/22 07:42:39;;;;;;;0.85;0.77;;;;;;;13.18;59.31;99284.91;4470060;32;34012;-70
2023/03/22 07:45:11;;;;;;;1.25;1.15;;;;;;;14.13;59.93;99275.66;4468840;32;35855;-71
2023/03/22 07:47:46;;;;;;;4.50;1.55;;;;;;;14.02;55.23;99274.19;4470132;32;35208;-72
2023/03/22 07:50:18;;;;;;;0.45;0.45;;;;;;;13.76;55.99;99269.59;4463774;32;34331;-70
2023/03/22 07:52:46;;;;;;;1.45;1.35;;;;;;;13.98;55.02;99276.94;4453012;32;33885;-71
2023/03/22 07:55:18;;;;;;;0.75;0.75;;;;;;;13.27;56.72;99275.97;4462512;32;35752;-71
2023/03/22 07:57:46;;;;;;;1.85;1.52;;;;;;;13.30;57.06;99281.16;4469789;32;34581;-71
2023/03/22 08:00:16;;;;;;;1.23;1.10;;;;;;;13.28;57.22;99278.56;4466026;32;33653;-71
2023/03/22 08:02:46;;;;;;;1.60;1.50;;;;;;;13.72;56.57;99269.75;4452824;32;34888;-71
2023/03/22 08:05:15;;;;;;;2.78;1.80;;;;;;;13.71;56.33;99263.66;4453104;32;34200;-71
2023/03/22 08:07:45;;;;;;;0.85;0.85;;;;;;;13.78;56.38;99265.22;4460448;32;34317;-72
2023/03/22 08:10:14;;;;;;;1.23;1.08;;;;;;;14.25;55.55;99271.88;4454042;32;33452;-72
2023/03/22 08:12:43;;;;;;;2.72;2.53;;;;;;;13.85;55.73;99271.13;4464845;32;34629;-72
2023/03/22 08:15:12;;;;;;;2.05;1.95;;;;;;;14.07;54.88;99273.22;4469729;32;35004;-72
2023/03/22 08:17:40;;;;;;;1.02;1.02;;;;;;;14.10;54.15;99276.63;4469577;32;34529;-71
2023/03/22 08:20:11;;;;;;;0.47;0.47;;;;;;;14.33;53.21;99275.13;4469692;32;33329;-70
2023/03/22 08:22:44;;;;;;;1.05;1.05;;;;;;;14.59;52.64;99279.69;4460279;32;35002;-73
2023/03/22 08:25:14;;;;;;;0.40;0.40;;;;;;;14.46;52.47;99279.16;4453958;32;35530;-71
2023/03/22 08:27:45;;;;;;;1.58;1.48;;;;;;;14.26;52.83;99282.31;4459481;32;34457;-70
2023/03/22 08:30:14;;;;;;;4.60;1.77;;;;;;;15.00;52.51;99287.25;4455293;32;33155;-70
2023/03/22 08:32:42;;;;;;;0.70;0.70;;;;;;;15.11;52.56;99283.41;4477561;32;34733;-71
2023/03/22 08:35:11;;;;;;;3.03;1.98;;;;;;;15.30;52.96;99288.09;4470759;32;34904;-71
2023/03/22 08:37:40;;;;;;;0.68;0.68;;;;;;;15.51;52.52;99291.81;4485036;32;34416;-71
2023/03/22 08:40:10;;;;;;;4.43;3.22;;;;;;;14.93;54.67;99284.84;4474239;32;33328;-71
2023/03/22 08:42:40;;;;;;;1.25;1.20;;;;;;;14.90;51.99;99290.16;4464073;32;33934;-74
2023/03/22 08:45:09;;;;;;;1.48;1.08;;;;;;;14.80;52.65;99296.56;4470378;32;35925;-71
2023/03/22 08:47:40;;;;;;;0.77;0.77;;;;;;;14.45;52.58;99289.66;4465311;32;35119;-76
2023/03/22 08:50:10;;;;;;;2.58;1.90;;;;;;;14.43;54.48;99287.09;4465401;32;34552;-71
2023/03/22 08:52:46;;;;;;;1.75;1.65;;;;;;;14.68;52.94;99294.28;4484187;32;33135;-71
2023/03/22 08:55:19;;;;;;;1.35;1.25;;;;;;;14.14;54.34;99291.34;4485649;32;35054;-74
2023/03/22 08:57:50;;;;;;;0.45;0.45;;;;;;;14.40;52.86;99289.81;4485989;32;35347;-73
2023/03/22 09:00:20;;;;;;;1.50;1.40;;;;;;;13.81;54.96;99286.06;4486101;32;34329;-72
2023/03/22 09:02:49;;;;;;;0.90;0.90;;;;;;;14.35;54.05;99281.22;4485300;32;34856;-71
2023/03/22 09:05:17;;;;;;;1.55;1.27;;;;;;;14.41;52.83;99276.63;4477936;32;34931;-75
2023/03/22 09:07:51;;;;;;;1.25;1.12;;;;;;;14.56;53.14;99290.25;4456968;32;34461;-71
2023/03/22 09:10:22;;;;;;;2.25;2.05;;;;;;;13.40;54.97;99295.75;4469503;32;33244;-76
2023/03/22 09:12:51;;;;;;;0.55;0.55;;;;;;;14.06;54.00;99293.28;4474179;32;34034;-71
2023/03/22 09:15:19;;;;;;;0.95;0.93;;;;;;;13.43;56.24;99295.72;4456109;32;35887;-72
2023/03/22 09:17:49;;;;;;;1.58;1.40;;;;;;;13.94;54.48;99293.59;4471026;32;34654;-70
2023/03/22 09:20:17;;;;;;;2.72;0.95;;;;;;;13.80;55.09;99299.19;4443171;32;32783;-77
2023/03/22 09:22:47;;;;;;;1.02;1.02;;;;;;;14.55;53.54;99289.38;4477290;32;33290;-76
2023/03/22 09:25:16;;;;;;;0.50;0.50;;;;;;;14.59;53.02;99285.81;4475745;32;34767;-71
2023/03/22 09:27:48;;;;;;;2.05;1.55;;;;;;;14.05;54.03;99288.97;4458548;32;34634;-78
2023/03/22 09:30:16;;;;;;;1.80;1.70;;;;;;;14.37;54.13;99282.03;4471246;32;33922;-76
2023/03/22 09:32:49;;;;;;;0.95;0.95;;;;;;;14.43;53.34;99281.84;4469987;32;33999;-76
2023/03/22 09:35:21;;;;;;;1.55;1.48;;;;;;;14.02;54.43;99279.41;4471824;32;35953;-71
2023/03/22 09:37:58;;;;;;;1.65;1.30;;;;;;;13.88;54.64;99278.06;4473582;32;34285;-71
2023/03/22 09:40:32;;;;;;;1.20;0.88;;;;;;;13.75;55.74;99273.12;4482193;32;35643;-71
2023/03/22 09:43:07;;;;;;;1.23;1.15;;;;;;;14.09;54.83;99274.03;4476305;32;33927;-70
2023/03/22 09:45:46;;;;;;;3.20;1.80;;;;;;;13.94;55.64;99276.16;4457572;32;35871;-70
2023/03/22 09:48:18;;;;;;;;;;;;;;;14.02;55.76;99273.34;4457350;32;34554;-75
2023/03/22 09:50:51;;;;;;;1.50;1.37;;;;;;;13.68;55.58;99279.44;4482527;32;33576;-70
2023/03/22 09:53:22;;;;;;;0.98;0.95;;;;;;;13.61;56.36;99278.72;4484864;32;33944;-71
2023/03/22 09:56:10;;;;;;;1.62;1.52;;;;;;;14.08;55.31;99277.53;4465661;32;34239;-71
2023/03/22 09:59:06;;;;;;;1.45;1.35;;;;;;;13.82;54.88;99282.56;4471326;32;34309;-71
2023/03/22 10:01:58;;;;;;;2.62;1.00;;;;;;;13.86;55.95;99282.50;4472091;32;34227;-71
2023/03/22 10:04:48;;;;;;;0.70;0.70;;;;;;;13.89;56.60;99278.03;4472934;32;34059;-71
2023/03/22 10:07:52;;;;;;;1.02;1.00;;;;;;;14.34;53.54;99274.25;4486381;32;34881;-71
2023/03/22 10:10:23;;;;;;;1.33;1.23;;;;;;;14.13;54.60;99273.91;4469655;32;34468;-72
2023/03/22 10:13:06;;;;;;;1.42;1.33;;;;;;;14.14;54.33;99269.53;4485949;32;34408;-71
2023/03/22 10:15:37;;;;;;;0.73;0.73;;;;;;;14.56;54.01;99275.38;4472537;32;33875;-75
2023/03/22 10:18:15;;;;;;;0.75;0.75;;;;;;;14.18;54.86;99269.41;4470629;32;35026;-71
2023/03/22 10:20:55;;;;;;;1.05;1.05;;;;;;;14.66;54.27;99272.50;4456641;32;35328;-72
2023/03/22 10:23:37;;;;;;;1.08;1.05;;;;;;;14.83;54.72;99275.50;4470663;32;33241;-71
2023/03/22 10:26:08;;;;;;;0.60;0.60;;;;;;;15.16;52.65;99275.44;4456656;32;34002;-71
2023/03/22 10:28:41;;;;;;;0.45;0.45;;;;;;;15.14;54.01;99271.97;4456329;32;35016;-71
2023/03/22 10:31:16;;;;;;;1.67;1.58;;;;;;;14.56;54.05;99270.13;4456583;32;34550;-71
2023/03/22 10:33:50;;;;;;;2.22;2.05;;;;;;;13.42;57.34;99273.03;4470577;32;33728;-71
2023/03/22 10:36:22;;;;;;;1.45;1.35;;;;;;;13.18;58.63;99270.97;4470522;32;34720;-72
2023/03/22 10:38:55;;;;;;;1.70;1.60;;;;;;;13.41;58.15;99271.34;4456661;32;34987;-71
2023/03/22 10:41:24;;;;;;;2.92;2.72;;;;;;;13.50;58.38;99270.28;4456636;32;34451;-71
2023/03/22 10:43:57;;;;;;;2.37;2.08;;;;;;;13.74;57.49;99268.78;4456579;32;33433;-71
2023/03/22 10:46:30;;;;;;;2.00;1.52;;;;;;;13.37;58.64;99274.91;4470429;32;33889;-71
2023/03/22 10:49:01;;;;;;;1.60;1.50;;;;;;;13.37;58.74;99272.28;4456683;32;35887;-72
2023/03/22 10:51:41;;;;;;;3.35;2.00;;;;;;;13.39;59.13;99277.50;4456859;32;35041;-75
2023/03/22 10:54:15;;;;;;;1.00;1.00;;;;;;;13.37;59.07;99269.69;4456944;32;33543;-71
2023/03/22 10:56:43;;;;;;;5.15;1.15;;;;;;;13.32;59.47;99262.84;4470303;32;33510;-71
2023/03/22 10:59:47;;;;;;;0.80;0.80;;;;;;;14.03;58.68;99260.22;4470198;32;34970;-71
2023/03/22 11:02:27;;;;;;;0.65;0.65;;;;;;;13.61;58.19;99264.78;4470258;32;33566;-74
2023/03/22 11:05:06;;;;;;;1.33;1.25;;;;;;;13.36;59.95;99247.06;4470553;32;33984;-73
2023/03/22 11:07:44;;;;;;;2.35;1.55;;;;;;;13.80;58.09;99258.19;4472365;32;33800;-69
2023/03/22 11:10:31;;;;;;;0.80;0.80;;;;;;;13.91;58.40;99251.81;4485649;32;35852;-74
2023/03/22 11:13:10;;;;;;;1.15;1.10;;;;;;;14.05;58.80;99244.47;4484439;32;34639;-74
2023/03/22 11:15:49;;;;;;;0.82;0.82;;;;;;;14.48;56.83;99245.91;4485475;32;33397;-73
2023/03/22 11:18:20;;;;;;;1.33;1.23;;;;;;;14.86;56.60;99243.09;4471408;32;33796;-74
2023/03/22 11:20:59;;;;;;;1.52;1.25;;;;;;;15.12;55.00;99243.19;4485765;32;35031;-73
2023/03/22 11:23:31;;;;;;;1.85;1.73;;;;;;;15.49;53.21;99233.28;4471558;32;34466;-75
2023/03/22 11:26:10;;;;;;;0.55;0.55;;;;;;;15.95;52.50;99229.13;4484492;32;33669;-76
2023/03/22 11:28:49;;;;;;;0.77;0.77;;;;;;;16.16;51.81;99229.31;4483759;32;34011;-76
2023/03/22 11:31:20;;;;;;;2.85;2.53;;;;;;;16.22;51.86;99226.47;4471711;32;35095;-73
2023/03/22 11:33:58;;;;;;;0.65;0.65;;;;;;;16.40;49.90;99219.69;4471510;32;34545;-76
2023/03/22 11:36:27;;;;;;;1.50;1.40;;;;;;;16.68;48.69;99216.91;4485522;32;34346;-75
2023/03/22 11:38:58;;;;;;;1.95;1.42;;;;;;;17.18;48.64;99208.81;4485318;32;33877;-75
2023/03/22 11:41:36;;;;;;;1.90;1.73;;;;;;;17.38;49.76;99207.16;4484189;32;35198;-72
2023/03/22 11:44:09;;;;;;;6.15;2.58;;;;;;;16.95;49.95;99206.25;4483888;32;35249;-71
2023/03/22 11:46:37;;;;;;;1.33;1.30;;;;;;;16.82;49.85;99203.22;4484159;32;33303;-76
2023/03/22 11:49:13;;;;;;;1.85;1.67;;;;;;;17.76;48.32;99210.84;4483991;32;34760;-72
2023/03/22 11:51:41;;;;;;;1.98;1.87;;;;;;;17.90;48.14;99202.38;4484363;32;35424;-71
2023/03/22 11:54:24;;;;;;;0.88;0.88;;;;;;;18.14;45.37;99204.88;4483828;32;35076;-75
2023/03/22 11:56:54;;;;;;;1.50;1.40;;;;;;;19.13;47.32;99211.81;4471214;32;33539;-73
2023/03/22 11:59:29;;;;;;;3.33;1.33;;;;;;;19.06;43.81;99202.47;4485068;32;33813;-75
2023/03/22 12:02:14;;;;;;;1.45;1.35;;;;;;;19.08;43.73;99205.91;4483955;32;35902;-72
2023/03/22 12:05:01;;;;;;;3.67;3.25;;;;;;;17.28;44.41;99208.44;4483551;32;34635;-74